createdAt,value
2023-05-21T00:00:28.868Z,94.41
2023-05-21T00:02:09.273Z,94.69
2023-05-21T00:03:49.975Z,94.65
2023-05-21T00:05:30.080Z,94.64
2023-05-21T00:07:10.486Z,94.58
2023-05-21T00:08:50.991Z,94.74
2023-05-21T00:10:31.304Z,94.64
2023-05-21T00:12:11.671Z,94.7
2023-05-21T00:13:52.122Z,95.1
2023-05-21T00:15:32.539Z,95.25
2023-05-21T00:17:12.984Z,95.05
2023-05-21T00:18:53.351Z,95.18
2023-05-21T00:20:33.789Z,95.28
2023-05-21T00:22:14.299Z,95.6
2023-05-21T00:23:54.742Z,95.56
2023-05-21T00:25:35.266Z,95.6
2023-05-21T00:27:15.552Z,95.66
2023-05-21T00:28:55.955Z,95.61
2023-05-21T00:30:36.405Z,95.6
2023-05-21T00:32:16.754Z,95.78
2023-05-21T00:33:57.152Z,96.03
2023-05-21T00:35:37.664Z,96.28
2023-05-21T00:37:17.951Z,96.26
2023-05-21T00:38:58.324Z,96.15
2023-05-21T00:40:38.836Z,96.21
2023-05-21T00:42:19.233Z,96.05
2023-05-21T00:43:59.666Z,96.19
2023-05-21T00:45:40.105Z,96.17
2023-05-21T00:47:20.530Z,96.34
2023-05-21T00:49:00.844Z,96.37
2023-05-21T00:50:41.246Z,96.38
2023-05-21T00:52:21.685Z,96.74
2023-05-21T00:54:02.201Z,96.73
2023-05-21T00:55:42.618Z,96.75
2023-05-21T00:57:23.024Z,96.68
2023-05-21T00:59:03.443Z,96.61
2023-05-21T01:00:43.881Z,96.62
2023-05-21T01:02:24.630Z,96.5
2023-05-21T01:04:04.704Z,96.62
2023-05-21T01:05:45.254Z,96.63
2023-05-21T01:07:25.654Z,96.55
2023-05-21T01:09:06.080Z,96.58
2023-05-21T01:10:46.451Z,96.77
2023-05-21T01:12:26.806Z,96.84
2023-05-21T01:14:07.239Z,96.87
2023-05-21T01:15:47.673Z,97.07
2023-05-21T01:17:28.135Z,97.08
2023-05-21T01:19:08.659Z,97.1
2023-05-21T01:20:48.992Z,97.01
2023-05-21T01:22:29.493Z,96.88
2023-05-21T01:24:09.858Z,96.83
2023-05-21T01:25:50.298Z,96.86
2023-05-21T01:27:30.712Z,96.78
2023-05-21T01:29:11.129Z,96.76
2023-05-21T01:30:51.536Z,96.74
2023-05-21T01:32:32.056Z,96.65
2023-05-21T01:34:12.436Z,96.88
2023-05-21T01:35:52.855Z,97.14
2023-05-21T01:37:33.405Z,97.09
2023-05-21T01:39:13.802Z,96.97
2023-05-21T01:40:54.173Z,96.8
2023-05-21T01:42:34.563Z,96.71
2023-05-21T01:44:14.990Z,96.65
2023-05-21T01:45:55.607Z,96.75
2023-05-21T01:47:35.898Z,96.81
2023-05-21T01:49:16.336Z,97.05
2023-05-21T01:50:56.816Z,97.18
2023-05-21T01:52:37.202Z,97.25
2023-05-21T01:54:17.630Z,97.27
2023-05-21T01:55:58.034Z,97.19
2023-05-21T01:57:38.386Z,97.06
2023-05-21T01:59:18.698Z,97.06
2023-05-21T02:00:59.138Z,97.08
2023-05-21T02:02:39.559Z,97.17
2023-05-21T02:04:19.910Z,97.05
2023-05-21T02:06:00.297Z,96.91
2023-05-21T02:07:40.701Z,96.9
2023-05-21T02:09:21.133Z,97.18
2023-05-21T02:11:01.577Z,97.12
2023-05-21T02:12:41.917Z,97.17
2023-05-21T02:16:02.800Z,97.17
2023-05-21T02:17:43.201Z,97.19
2023-05-21T02:19:23.750Z,97.27
2023-05-21T02:21:04.055Z,97.27
2023-05-21T02:22:44.464Z,97.33
2023-05-21T02:24:24.862Z,97.48
2023-05-21T02:26:05.302Z,97.5
2023-05-21T02:27:45.648Z,97.73
2023-05-21T02:29:25.981Z,97.83
2023-05-21T02:31:06.455Z,97.79
2023-05-21T02:32:46.899Z,97.83
2023-05-21T02:34:27.409Z,97.78
2023-05-21T02:36:07.671Z,97.73
2023-05-21T02:37:48.098Z,97.65
2023-05-21T02:39:28.542Z,97.65
2023-05-21T02:41:08.955Z,97.69
2023-05-21T02:42:49.348Z,97.74
2023-05-21T02:44:29.850Z,97.94
2023-05-21T02:46:10.312Z,98.11
2023-05-21T02:47:50.638Z,98.23
2023-05-21T02:49:31.078Z,98.19
2023-05-21T02:51:11.444Z,98.25
2023-05-21T02:52:51.854Z,98.13
2023-05-21T02:54:32.259Z,98
2023-05-21T02:56:12.616Z,97.96
2023-05-21T02:57:53.035Z,97.94
2023-05-21T02:59:33.388Z,97.83
2023-05-21T03:01:13.812Z,97.89
2023-05-21T03:02:54.309Z,97.93
2023-05-21T03:04:34.603Z,97.96
2023-05-21T03:06:15.078Z,98
2023-05-21T03:07:55.425Z,98.1
2023-05-21T03:09:35.905Z,98.21
2023-05-21T03:11:16.264Z,98.23
2023-05-21T03:12:56.741Z,98.28
2023-05-21T03:14:37.120Z,98.3
2023-05-21T03:16:17.537Z,98.23
2023-05-21T03:17:58.115Z,98.16
2023-05-21T03:19:38.484Z,98.11
2023-05-21T03:21:18.896Z,98.17
2023-05-21T03:22:59.298Z,98.25
2023-05-21T03:24:39.741Z,98.28
2023-05-21T03:26:20.158Z,98.37
2023-05-21T03:28:00.656Z,98.47
2023-05-21T03:29:41.050Z,98.55
2023-05-21T03:31:21.487Z,98.54
2023-05-21T03:33:01.976Z,98.44
2023-05-21T03:34:42.315Z,98.35
2023-05-21T03:36:22.759Z,98.36
2023-05-21T03:38:03.147Z,98.31
2023-05-21T03:39:43.512Z,98.38
2023-05-21T03:41:23.913Z,98.74
2023-05-21T03:43:04.287Z,98.8
2023-05-21T03:44:44.652Z,98.89
2023-05-21T03:46:25.065Z,98.92
2023-05-21T03:48:05.468Z,98.99
2023-05-21T03:49:45.902Z,98.96
2023-05-21T03:51:26.272Z,98.87
2023-05-21T03:53:06.748Z,98.75
2023-05-21T03:54:47.168Z,98.69
2023-05-21T03:56:27.528Z,98.69
2023-05-21T03:58:07.889Z,98.62
2023-05-21T03:59:48.281Z,98.58
2023-05-21T04:01:28.788Z,98.52
2023-05-21T04:03:09.083Z,98.51
2023-05-21T04:04:49.488Z,98.6
2023-05-21T04:06:29.826Z,98.56
2023-05-21T04:08:10.217Z,98.71
2023-05-21T04:09:50.671Z,98.78
2023-05-21T04:11:31.112Z,98.79
2023-05-21T04:13:11.573Z,98.85
2023-05-21T04:14:51.989Z,98.83
2023-05-21T04:16:32.439Z,98.81
2023-05-21T04:18:12.855Z,98.86
2023-05-21T04:19:53.308Z,98.86
2023-05-21T04:21:33.735Z,98.9
2023-05-21T04:23:14.125Z,98.9
2023-05-21T04:24:54.557Z,98.84
2023-05-21T04:26:34.943Z,98.8
2023-05-21T04:28:15.415Z,98.68
2023-05-21T04:29:55.863Z,98.61
2023-05-21T04:31:36.328Z,98.5
2023-05-21T04:33:16.732Z,98.48
2023-05-21T04:34:57.190Z,98.42
2023-05-21T04:36:37.625Z,98.37
2023-05-21T04:38:18.051Z,98.42
2023-05-21T04:39:58.492Z,98.3
2023-05-21T04:41:38.881Z,98.08
2023-05-21T04:43:19.331Z,97.97
2023-05-21T04:44:59.677Z,97.87
2023-05-21T04:46:41.816Z,97.78
2023-05-21T04:48:20.488Z,97.66
2023-05-21T04:50:00.857Z,97.56
2023-05-21T04:51:41.256Z,97.35
2023-05-21T04:53:21.698Z,97.26
2023-05-21T04:55:02.214Z,97.13
2023-05-21T04:56:42.538Z,96.97
2023-05-21T04:58:22.929Z,96.69
2023-05-21T05:00:03.325Z,96.47
2023-05-21T05:01:43.756Z,96.28
2023-05-21T05:03:24.205Z,96.16
2023-05-21T05:05:04.636Z,96.07
2023-05-21T05:06:45.016Z,95.87
2023-05-21T05:08:25.443Z,95.85
2023-05-21T05:10:05.914Z,95.78
2023-05-21T05:11:46.455Z,95.68
2023-05-21T05:13:26.872Z,95.47
2023-05-21T05:15:07.260Z,95.09
2023-05-21T05:16:47.636Z,94.87
2023-05-21T05:18:28.086Z,94.38
2023-05-21T05:20:08.458Z,94.11
2023-05-21T05:21:48.858Z,94.19
2023-05-21T05:23:29.330Z,94.06
2023-05-21T05:25:09.775Z,93.76
2023-05-21T05:26:50.230Z,93.74
2023-05-21T05:28:30.652Z,93.37
2023-05-21T05:30:11.137Z,93.34
2023-05-21T05:31:51.570Z,93.12
2023-05-21T05:33:32.109Z,93.18
2023-05-21T05:35:12.577Z,93.21
2023-05-21T05:36:52.996Z,92.8
2023-05-21T05:38:33.515Z,92.47
2023-05-21T05:40:13.976Z,92.14
2023-05-21T05:41:54.380Z,92.11
2023-05-21T05:43:34.853Z,91.74
2023-05-21T05:45:15.384Z,91.2
2023-05-21T05:46:55.800Z,91.21
2023-05-21T05:48:36.268Z,91.01
2023-05-21T05:50:16.661Z,90.7
2023-05-21T05:51:57.094Z,90.01
2023-05-21T05:53:37.422Z,90.18
2023-05-21T05:55:17.774Z,90.02
2023-05-21T05:56:58.199Z,89.45
2023-05-21T05:58:38.675Z,89.39
2023-05-21T06:00:19.064Z,89.88
2023-05-21T06:01:59.430Z,89.14
2023-05-21T06:03:39.853Z,88.98
2023-05-21T06:05:20.271Z,88.38
2023-05-21T06:07:00.722Z,87.95
2023-05-21T06:08:41.196Z,88.21
2023-05-21T06:10:21.685Z,87.73
2023-05-21T06:12:02.176Z,87.7
2023-05-21T06:13:42.554Z,87.48
2023-05-21T06:15:23.050Z,87.91
2023-05-21T06:17:03.531Z,86.18
2023-05-21T06:18:44.114Z,87.07
2023-05-21T06:20:24.456Z,86.82
2023-05-21T06:22:04.892Z,86
2023-05-21T06:23:45.342Z,85.13
2023-05-21T06:25:25.751Z,85.53
2023-05-21T06:27:06.239Z,84.59
2023-05-21T06:28:46.750Z,84.46
2023-05-21T06:30:27.197Z,83.07
2023-05-21T06:32:07.515Z,84.38
2023-05-21T06:33:48.128Z,82.89
2023-05-21T06:35:28.512Z,82.83
2023-05-21T06:37:08.904Z,82.39
2023-05-21T06:38:49.334Z,82.62
2023-05-21T06:40:29.794Z,82.09
2023-05-21T06:42:10.306Z,82.44
2023-05-21T06:43:50.768Z,80.46
2023-05-21T06:45:31.232Z,80.73
2023-05-21T06:47:11.621Z,79.49
2023-05-21T06:48:52.183Z,79.5
2023-05-21T06:50:32.604Z,79.63
2023-05-21T06:52:13.080Z,79.63
2023-05-21T06:53:53.600Z,79.34
2023-05-21T06:55:34.095Z,79.48
2023-05-21T06:57:14.404Z,79.45
2023-05-21T06:58:54.852Z,78.46
2023-05-21T07:00:35.207Z,78.72
2023-05-21T07:02:15.679Z,78.14
2023-05-21T07:03:56.076Z,78.15
2023-05-21T07:05:36.750Z,77.3
2023-05-21T07:07:17.051Z,77.24
2023-05-21T07:08:57.446Z,76.76
2023-05-21T07:10:38.086Z,76.81
2023-05-21T07:12:18.417Z,76.63
2023-05-21T07:13:58.764Z,76.9
2023-05-21T07:15:39.205Z,76.5
2023-05-21T07:17:19.551Z,75.35
2023-05-21T07:19:00.118Z,74.62
2023-05-21T07:20:40.562Z,74.2
2023-05-21T07:22:21.023Z,73.61
2023-05-21T07:24:01.424Z,72.98
2023-05-21T07:25:41.810Z,72.95
2023-05-21T07:27:25.916Z,72.53
2023-05-21T07:29:02.641Z,71.79
2023-05-21T07:30:43.067Z,71.46
2023-05-21T07:32:23.597Z,71.56
2023-05-21T07:34:03.891Z,71.58
2023-05-21T07:35:44.342Z,70.61
2023-05-21T07:37:24.779Z,70.31
2023-05-21T07:39:05.226Z,69.95
2023-05-21T07:40:45.644Z,70.63
2023-05-21T07:42:26.051Z,68.86
2023-05-21T07:44:06.448Z,69.24
2023-05-21T07:45:46.883Z,68.96
2023-05-21T07:47:27.367Z,69.25
2023-05-21T07:49:07.721Z,67.35
2023-05-21T07:50:48.147Z,66.08
2023-05-21T07:52:28.624Z,65.94
2023-05-21T07:54:08.972Z,65.63
2023-05-21T07:55:49.361Z,65.1
2023-05-21T07:57:29.733Z,64.25
2023-05-21T07:59:11.681Z,66.21
2023-05-21T08:00:50.547Z,63.59
2023-05-21T08:02:31.068Z,62.94
2023-05-21T08:04:11.537Z,63.59
2023-05-21T08:05:51.790Z,62.51
2023-05-21T08:07:32.341Z,63
2023-05-21T08:09:12.865Z,62.24
2023-05-21T08:10:53.261Z,61.92
2023-05-21T08:12:33.737Z,61.04
2023-05-21T08:14:14.147Z,61.81
2023-05-21T08:15:54.711Z,59.07
2023-05-21T08:17:35.112Z,60.25
2023-05-21T08:19:15.518Z,60.15
2023-05-21T08:20:55.849Z,59.51
2023-05-21T08:22:36.286Z,58.45
2023-05-21T08:24:16.779Z,58.57
2023-05-21T08:25:57.153Z,60.07
2023-05-21T08:27:37.625Z,57.61
2023-05-21T08:29:17.973Z,58.56
2023-05-21T08:30:58.399Z,58.34
2023-05-21T08:32:38.887Z,57.51
2023-05-21T08:34:19.267Z,55.49
2023-05-21T08:35:59.659Z,54.98
2023-05-21T08:37:40.110Z,56.77
2023-05-21T08:39:20.508Z,57.16
2023-05-21T08:41:00.874Z,54.59
2023-05-21T08:42:41.284Z,53.13
2023-05-21T08:44:21.703Z,54.1
2023-05-21T08:46:02.179Z,54.69
2023-05-21T08:47:42.577Z,53.88
2023-05-21T08:49:24.149Z,54.63
2023-05-21T08:51:03.530Z,53.21
2023-05-21T08:52:46.943Z,52.59
2023-05-21T08:54:24.344Z,52.74
2023-05-21T08:56:04.762Z,52.15
2023-05-21T08:57:45.164Z,52.8
2023-05-21T08:59:25.577Z,52.58
2023-05-21T09:01:05.969Z,52.03
2023-05-21T09:02:46.264Z,51.68
2023-05-21T09:04:26.783Z,52.93
2023-05-21T09:06:07.053Z,51.56
2023-05-21T09:07:47.452Z,51.44
2023-05-21T09:09:27.915Z,51.56
2023-05-21T09:11:08.332Z,51.36
2023-05-21T09:12:48.783Z,51.88
2023-05-21T09:14:29.196Z,51.57
2023-05-21T09:16:09.615Z,53.01
2023-05-21T09:17:50.000Z,53.33
2023-05-21T09:19:30.439Z,53.03
2023-05-21T09:21:10.842Z,52.47
2023-05-21T09:22:51.223Z,54.77
2023-05-21T09:24:33.118Z,52.7
2023-05-21T09:26:12.100Z,51.63
2023-05-21T09:27:52.540Z,52.4
2023-05-21T09:29:32.968Z,51.93
2023-05-21T09:31:13.474Z,52.68
2023-05-21T09:32:53.874Z,53.45
2023-05-21T09:34:34.245Z,53.46
2023-05-21T09:36:14.709Z,53.83
2023-05-21T09:37:55.178Z,53.35
2023-05-21T09:39:35.608Z,52.86
2023-05-21T09:41:19.836Z,53.74
2023-05-21T09:42:56.375Z,52.76
2023-05-21T09:44:36.824Z,54.19
2023-05-21T09:46:17.343Z,53.38
2023-05-21T09:47:57.687Z,53.87
2023-05-21T09:49:38.000Z,52.78
2023-05-21T09:51:18.431Z,53.1
2023-05-21T09:52:58.868Z,51.57
2023-05-21T09:54:39.250Z,52.53
2023-05-21T09:56:19.804Z,53.57
2023-05-21T09:58:00.147Z,49.79
2023-05-21T09:59:40.455Z,51.36
2023-05-21T10:01:20.875Z,47.65
2023-05-21T10:03:01.356Z,49.05
2023-05-21T10:04:41.728Z,47.94
2023-05-21T10:06:22.147Z,48.4
2023-05-21T10:08:02.597Z,48.7
2023-05-21T10:09:43.095Z,47.44
2023-05-21T10:11:23.515Z,47.58
2023-05-21T10:13:04.009Z,49.73
2023-05-21T10:14:44.403Z,46.73
2023-05-21T10:16:24.824Z,46.74
2023-05-21T10:18:05.296Z,48.08
2023-05-21T10:19:45.686Z,48.2
2023-05-21T10:21:25.987Z,45.36
2023-05-21T10:23:06.382Z,44.73
2023-05-21T10:24:46.831Z,45.58
2023-05-21T10:26:27.141Z,45.26
2023-05-21T10:28:07.431Z,44.43
2023-05-21T10:29:47.847Z,44.87
2023-05-21T10:31:28.310Z,43.37
2023-05-21T10:33:08.821Z,43.56
2023-05-21T10:34:49.179Z,42.08
2023-05-21T10:36:29.565Z,44.31
2023-05-21T10:38:10.008Z,43.79
2023-05-21T10:39:50.338Z,43.83
2023-05-21T10:41:30.793Z,43.92
2023-05-21T10:43:11.238Z,42.06
2023-05-21T10:44:51.644Z,41.63
2023-05-21T10:46:32.079Z,41.67
2023-05-21T10:48:12.574Z,43.02
2023-05-21T10:49:52.994Z,42.43
2023-05-21T10:51:33.379Z,40.77
2023-05-21T10:53:13.754Z,41.21
2023-05-21T10:54:54.130Z,42.74
2023-05-21T10:56:34.526Z,41.01
2023-05-21T10:58:14.814Z,41.2
2023-05-21T10:59:55.137Z,41.57
2023-05-21T11:01:35.504Z,41.15
2023-05-21T11:03:15.874Z,40.57
2023-05-21T11:04:56.207Z,40.99
2023-05-21T11:06:36.638Z,41.5
2023-05-21T11:08:17.073Z,42.33
2023-05-21T11:09:57.502Z,40.56
2023-05-21T11:11:37.910Z,43.26
2023-05-21T11:13:18.336Z,43.05
2023-05-21T11:14:58.746Z,42.58
2023-05-21T11:16:39.156Z,44.85
2023-05-21T11:18:19.604Z,42.56
2023-05-21T11:20:00.098Z,43.46
2023-05-21T11:21:40.540Z,43.66
2023-05-21T11:23:20.985Z,41.46
2023-05-21T11:25:01.371Z,42.77
2023-05-21T11:26:41.823Z,43.6
2023-05-21T11:28:22.225Z,44.54
2023-05-21T11:30:02.531Z,44.2
2023-05-21T11:31:42.851Z,43.68
2023-05-21T11:33:23.136Z,42.99
2023-05-21T11:35:03.419Z,43.24
2023-05-21T11:36:43.716Z,44.6
2023-05-21T11:38:24.099Z,43.49
2023-05-21T11:40:04.551Z,41.15
2023-05-21T11:41:45.014Z,44.41
2023-05-21T11:43:25.412Z,43.21
2023-05-21T11:45:05.796Z,45.17
2023-05-21T11:46:46.337Z,44.75
2023-05-21T11:48:27.673Z,44.45
2023-05-21T11:50:07.067Z,46.15
2023-05-21T11:51:47.561Z,44.42
2023-05-21T11:53:28.002Z,43.34
2023-05-21T11:55:08.429Z,45.77
2023-05-21T11:56:48.846Z,44.41
2023-05-21T11:58:29.234Z,44.28
2023-05-21T12:00:09.663Z,45.17
2023-05-21T12:01:50.019Z,43.92
2023-05-21T12:03:30.817Z,44.44
2023-05-21T12:05:12.549Z,43.83
2023-05-21T12:06:51.213Z,43.78
2023-05-21T12:08:31.581Z,43.4
2023-05-21T12:10:12.067Z,45.35
2023-05-21T12:11:52.377Z,43.25
2023-05-21T12:13:32.883Z,43.16
2023-05-21T12:15:13.355Z,44.82
2023-05-21T12:16:53.921Z,45.67
2023-05-21T12:18:34.201Z,43.14
2023-05-21T12:20:14.591Z,43.97
2023-05-21T12:21:55.005Z,44.15
2023-05-21T12:23:35.491Z,44.94
2023-05-21T12:25:15.889Z,46.16
2023-05-21T12:26:56.251Z,45.99
2023-05-21T12:28:36.714Z,44.14
2023-05-21T12:30:17.163Z,44.85
2023-05-21T12:31:57.565Z,45.26
2023-05-21T12:33:38.032Z,45.22
2023-05-21T12:35:18.451Z,45.15
2023-05-21T12:36:58.648Z,45.35
2023-05-21T12:38:38.926Z,42.24
2023-05-21T12:40:19.261Z,42.73
2023-05-21T12:41:59.556Z,42.26
2023-05-21T12:43:39.873Z,41.64
2023-05-21T12:45:20.366Z,42.04
2023-05-21T12:47:00.795Z,42.34
2023-05-21T12:48:41.242Z,39.64
2023-05-21T12:50:21.692Z,40.56
2023-05-21T12:52:02.127Z,39.67
2023-05-21T12:53:42.583Z,40.73
2023-05-21T12:55:23.006Z,40.45
2023-05-21T12:57:03.477Z,40.28
2023-05-21T12:58:43.906Z,41.21
2023-05-21T13:00:24.322Z,40.02
2023-05-21T13:02:04.783Z,40.52
2023-05-21T13:03:45.280Z,39.41
2023-05-21T13:05:25.715Z,39.12
2023-05-21T13:07:06.016Z,39.82
2023-05-21T13:08:46.302Z,38.49
2023-05-21T13:10:26.667Z,38.28
2023-05-21T13:12:07.070Z,38.93
2023-05-21T13:13:47.490Z,39.52
2023-05-21T13:15:27.947Z,41.25
2023-05-21T13:17:08.459Z,37.57
2023-05-21T13:18:48.927Z,37.04
2023-05-21T13:20:29.447Z,39.19
2023-05-21T13:22:09.808Z,38.47
2023-05-21T13:23:50.268Z,37.8
2023-05-21T13:25:30.705Z,36.86
2023-05-21T13:27:11.172Z,39.96
2023-05-21T13:28:51.631Z,36.04
2023-05-21T13:30:31.936Z,39.13
2023-05-21T13:32:12.389Z,36.77
2023-05-21T13:33:52.818Z,36.01
2023-05-21T13:35:33.226Z,35.89
2023-05-21T13:37:13.579Z,35.8
2023-05-21T13:38:53.907Z,35.39
2023-05-21T13:40:35.987Z,38.3
2023-05-21T13:42:14.579Z,37.41
2023-05-21T13:43:54.967Z,35.73
2023-05-21T13:45:35.349Z,36.68
2023-05-21T13:47:15.816Z,35.61
2023-05-21T13:48:56.264Z,35.27
2023-05-21T13:50:36.950Z,35.44
2023-05-21T13:52:17.144Z,35.37
2023-05-21T13:53:57.486Z,36.55
2023-05-21T13:55:37.918Z,36
2023-05-21T13:57:18.376Z,36.39
2023-05-21T13:58:58.785Z,35.98
2023-05-21T14:00:39.516Z,35.92
2023-05-21T14:02:19.659Z,36.3
2023-05-21T14:03:59.895Z,34.6
2023-05-21T14:05:40.294Z,36.23
2023-05-21T14:07:20.741Z,33.88
2023-05-21T14:09:01.214Z,34.75
2023-05-21T14:10:41.639Z,36.38
2023-05-21T14:12:21.957Z,34.59
2023-05-21T14:14:02.284Z,35.76
2023-05-21T14:15:42.753Z,36.48
2023-05-21T14:17:23.210Z,36.82
2023-05-21T14:19:03.648Z,35.93
2023-05-21T14:20:43.926Z,35.72
2023-05-21T14:22:24.461Z,35.93
2023-05-21T14:24:04.832Z,35.09
2023-05-21T14:25:45.278Z,36.37
2023-05-21T14:27:25.687Z,35.64
2023-05-21T14:29:06.172Z,36.55
2023-05-21T14:30:46.578Z,36.52
2023-05-21T14:32:27.278Z,35.19
2023-05-21T14:34:07.566Z,34.91
2023-05-21T14:35:47.989Z,35.77
2023-05-21T14:37:28.399Z,35.94
2023-05-21T14:39:08.844Z,35.28
2023-05-21T14:40:49.245Z,35.17
2023-05-21T14:42:30.541Z,36.34
2023-05-21T14:44:10.079Z,35.37
2023-05-21T14:45:50.500Z,34.81
2023-05-21T14:47:30.899Z,36.9
2023-05-21T14:49:11.262Z,36.88
2023-05-21T14:50:51.708Z,37.32
2023-05-21T14:52:32.237Z,37.3
2023-05-21T14:54:12.672Z,36.02
2023-05-21T14:55:53.067Z,36.96
2023-05-21T14:57:33.432Z,37
2023-05-21T14:59:13.871Z,38.5
2023-05-21T15:00:54.254Z,37.23
2023-05-21T15:02:34.837Z,40.05
2023-05-21T15:04:15.221Z,38.62
2023-05-21T15:05:55.562Z,39.03
2023-05-21T15:07:35.983Z,39.07
2023-05-21T15:09:16.396Z,39.22
2023-05-21T15:10:56.825Z,38.84
2023-05-21T15:12:37.248Z,39.91
2023-05-21T15:14:17.619Z,39.51
2023-05-21T15:15:58.084Z,39.35
2023-05-21T15:17:38.446Z,40.6
2023-05-21T15:19:18.804Z,40.95
2023-05-21T15:20:59.030Z,40.94
2023-05-21T15:22:39.365Z,40.87
2023-05-21T15:24:19.690Z,40.87
2023-05-21T15:25:59.951Z,42.24
2023-05-21T15:27:40.320Z,42.72
2023-05-21T15:29:20.876Z,41.33
2023-05-21T15:31:01.246Z,45.71
2023-05-21T15:32:41.650Z,45.54
2023-05-21T15:34:22.156Z,47.31
2023-05-21T15:36:02.709Z,47.19
2023-05-21T15:37:43.027Z,48.03
2023-05-21T15:39:23.431Z,48.64
2023-05-21T15:41:03.841Z,48.18
2023-05-21T15:42:44.315Z,47.83
2023-05-21T15:44:24.736Z,46.94
2023-05-21T15:46:05.193Z,48.31
2023-05-21T15:47:45.717Z,48.1
2023-05-21T15:49:26.162Z,49.15
2023-05-21T15:51:06.627Z,48.17
2023-05-21T15:52:46.972Z,48.38
2023-05-21T15:54:27.327Z,48.78
2023-05-21T15:56:07.752Z,48.84
2023-05-21T15:57:48.221Z,47.53
2023-05-21T15:59:28.577Z,48.33
2023-05-21T16:01:09.082Z,48.82
2023-05-21T16:02:49.443Z,46.13
2023-05-21T16:04:29.823Z,44.04
2023-05-21T16:06:10.236Z,44.3
2023-05-21T16:07:50.659Z,45.39
2023-05-21T16:09:31.073Z,45.57
2023-05-21T16:11:11.389Z,45.28
2023-05-21T16:12:51.783Z,44.3
2023-05-21T16:14:32.222Z,43.29
2023-05-21T16:16:12.580Z,43.13
2023-05-21T16:17:53.099Z,43.65
2023-05-21T16:19:33.548Z,44.77
2023-05-21T16:21:13.845Z,44.2
2023-05-21T16:22:54.287Z,45.11
2023-05-21T16:24:34.675Z,44.76
2023-05-21T16:26:15.094Z,43.95
2023-05-21T16:27:55.509Z,44.69
2023-05-21T16:29:36.405Z,44.73
2023-05-21T16:31:16.256Z,43.54
2023-05-21T16:32:56.770Z,44.91
2023-05-21T16:34:37.114Z,45.07
2023-05-21T16:36:18.116Z,43.5
2023-05-21T16:37:57.963Z,43.96
2023-05-21T16:39:38.389Z,43.08
2023-05-21T16:41:18.790Z,46.56
2023-05-21T16:43:01.800Z,45.57
2023-05-21T16:44:39.713Z,45.29
2023-05-21T16:46:20.165Z,44.28
2023-05-21T16:48:00.574Z,43.51
2023-05-21T16:49:40.953Z,44.25
2023-05-21T16:51:21.379Z,42.83
2023-05-21T16:53:01.786Z,42.65
2023-05-21T16:54:43.536Z,44.94
2023-05-21T16:56:22.708Z,44.2
2023-05-21T16:58:03.034Z,43.62
2023-05-21T16:59:43.416Z,43.05
2023-05-21T17:01:23.852Z,42.88
2023-05-21T17:03:04.395Z,43.59
2023-05-21T17:04:44.698Z,43.11
2023-05-21T17:06:25.106Z,43.29
2023-05-21T17:08:05.626Z,43.8
2023-05-21T17:09:46.072Z,44.04
2023-05-21T17:11:26.563Z,43.92
2023-05-21T17:13:20.886Z,43.52
2023-05-21T17:14:47.307Z,43.94
2023-05-21T17:16:27.704Z,45.48
2023-05-21T17:18:07.980Z,44.58
2023-05-21T17:19:48.207Z,45.33
2023-05-21T17:21:28.526Z,45.76
2023-05-21T17:23:08.993Z,45.92
2023-05-21T17:24:49.418Z,46.71
2023-05-21T17:26:29.882Z,46.7
2023-05-21T17:28:10.291Z,47.53
2023-05-21T17:29:50.728Z,46.76
2023-05-21T17:31:31.187Z,46.47
2023-05-21T17:33:11.614Z,46.23
2023-05-21T17:34:52.043Z,44.82
2023-05-21T17:36:32.497Z,46.33
2023-05-21T17:38:12.970Z,47.26
2023-05-21T17:39:53.450Z,46.32
2023-05-21T17:41:33.934Z,47.08
2023-05-21T17:43:14.406Z,48.46
2023-05-21T17:44:54.743Z,49.24
2023-05-21T17:46:35.092Z,48.16
2023-05-21T17:48:15.342Z,49.67
2023-05-21T17:49:55.717Z,49.24
2023-05-21T17:51:36.182Z,50.2
2023-05-21T17:53:16.636Z,49.82
2023-05-21T17:54:57.043Z,50.09
2023-05-21T17:56:37.446Z,49.18
2023-05-21T17:58:17.921Z,50.18
2023-05-21T17:59:58.344Z,49.44
2023-05-21T18:01:38.796Z,51.35
2023-05-21T18:03:19.264Z,49.77
2023-05-21T18:04:59.668Z,50.3
2023-05-21T18:06:40.093Z,50.07
2023-05-21T18:08:20.484Z,50.45
2023-05-21T18:10:00.974Z,50.71
2023-05-21T18:11:41.349Z,51.48
2023-05-21T18:13:21.740Z,50.89
2023-05-21T18:15:02.213Z,50.74
2023-05-21T18:16:42.550Z,50.74
2023-05-21T18:18:22.852Z,50.69
2023-05-21T18:20:03.137Z,51.63
2023-05-21T18:21:43.455Z,50.96
2023-05-21T18:23:23.744Z,50.85
2023-05-21T18:25:04.048Z,51.25
2023-05-21T18:26:44.362Z,51.3
2023-05-21T18:28:24.640Z,51.42
2023-05-21T18:30:04.998Z,52.34
2023-05-21T18:31:45.268Z,51.56
2023-05-21T18:33:25.545Z,51.95
2023-05-21T18:35:05.829Z,52.19
2023-05-21T18:36:46.157Z,52.2
2023-05-21T18:38:26.657Z,52.39
2023-05-21T18:40:07.090Z,53.65
2023-05-21T18:41:48.147Z,54.25
2023-05-21T18:43:27.876Z,54.98
2023-05-21T18:45:08.384Z,55.64
2023-05-21T18:46:48.796Z,56.05
2023-05-21T18:48:29.196Z,55.16
2023-05-21T18:50:09.631Z,56.38
2023-05-21T18:51:50.004Z,56.87
2023-05-21T18:53:30.470Z,55.2
2023-05-21T18:55:11.000Z,56.13
2023-05-21T18:56:51.267Z,57.32
2023-05-21T18:58:31.653Z,56.46
2023-05-21T19:00:12.089Z,59.68
2023-05-21T19:01:52.513Z,58.54
2023-05-21T19:03:32.898Z,59.28
2023-05-21T19:05:13.319Z,59.97
2023-05-21T19:06:53.633Z,60.18
2023-05-21T19:08:33.919Z,60.92
2023-05-21T19:10:14.223Z,61.35
2023-05-21T19:11:54.544Z,62.08
2023-05-21T19:13:34.843Z,62.21
2023-05-21T19:15:15.129Z,60.91
2023-05-21T19:16:55.452Z,61.46
2023-05-21T19:18:35.764Z,62.53
2023-05-21T19:20:16.068Z,62.9
2023-05-21T19:21:56.516Z,63.94
2023-05-21T19:23:51.256Z,64.31
2023-05-21T19:25:17.300Z,64.6
2023-05-21T19:26:57.751Z,63.39
2023-05-21T19:28:38.198Z,64.16
2023-05-21T19:30:18.571Z,64.14
2023-05-21T19:31:58.944Z,64.22
2023-05-21T19:33:39.431Z,63.86
2023-05-21T19:35:19.811Z,64.7
2023-05-21T19:37:00.188Z,64.14
2023-05-21T19:38:40.582Z,64.82
2023-05-21T19:40:21.014Z,64.76
2023-05-21T19:42:01.466Z,64.83
2023-05-21T19:43:41.893Z,65.11
2023-05-21T19:45:22.319Z,65.68
2023-05-21T19:47:02.669Z,65.54
2023-05-21T19:48:43.124Z,65.11
2023-05-21T19:50:23.461Z,65.29
2023-05-21T19:52:03.889Z,64.87
2023-05-21T19:53:44.302Z,65.86
2023-05-21T19:55:25.028Z,66.71
2023-05-21T19:57:05.158Z,66.93
2023-05-21T19:58:45.555Z,67.52
2023-05-21T20:00:25.976Z,68.15
2023-05-21T20:02:06.348Z,68.06
2023-05-21T20:03:46.825Z,68.29
2023-05-21T20:05:27.194Z,68.76
2023-05-21T20:07:07.527Z,68.9
2023-05-21T20:08:47.870Z,69.25
2023-05-21T20:10:28.295Z,69.84
2023-05-21T20:12:08.653Z,70.08
2023-05-21T20:13:49.061Z,70.1
2023-05-21T20:15:29.434Z,70.15
2023-05-21T20:17:09.921Z,71.04
2023-05-21T20:18:50.365Z,71.3
2023-05-21T20:20:30.803Z,71.34
2023-05-21T20:22:11.217Z,71.68
2023-05-21T20:23:51.624Z,72.17
2023-05-21T20:25:32.013Z,72.77
2023-05-21T20:27:12.308Z,72.36
2023-05-21T20:28:52.723Z,73.41
2023-05-21T20:30:33.090Z,73.77
2023-05-21T20:32:13.661Z,74.65
2023-05-21T20:33:54.127Z,74.05
2023-05-21T20:35:34.537Z,75.48
2023-05-21T20:37:14.959Z,75.03
2023-05-21T20:38:55.410Z,74.57
2023-05-21T20:40:35.937Z,75.4
2023-05-21T20:42:16.244Z,75.21
2023-05-21T20:43:56.643Z,75.61
2023-05-21T20:45:37.111Z,76.16
2023-05-21T20:47:17.529Z,76.62
2023-05-21T20:48:57.968Z,77.15
2023-05-21T20:50:38.655Z,77.82
2023-05-21T20:52:18.781Z,77.37
2023-05-21T20:53:59.196Z,77.46
2023-05-21T20:55:39.482Z,77.33
2023-05-21T20:57:19.788Z,78.54
2023-05-21T20:59:00.227Z,77.71
2023-05-21T21:00:40.600Z,78.13
2023-05-21T21:02:21.049Z,77.89
2023-05-21T21:04:01.448Z,78
2023-05-21T21:05:41.768Z,78.03
2023-05-21T21:07:22.157Z,79.01
2023-05-21T21:09:02.604Z,79.24
2023-05-21T21:10:43.077Z,79.24
2023-05-21T21:12:26.487Z,78.41
2023-05-21T21:14:03.998Z,78.29
2023-05-21T21:15:44.545Z,78.05
2023-05-21T21:17:24.951Z,77.78
2023-05-21T21:19:05.346Z,78.29
2023-05-21T21:20:45.734Z,77.53
2023-05-21T21:22:26.119Z,78.19
2023-05-21T21:24:06.567Z,78.02
2023-05-21T21:25:46.934Z,78.2
2023-05-21T21:27:27.305Z,77.12
2023-05-21T21:29:07.628Z,76.86
2023-05-21T21:30:47.903Z,76.62
2023-05-21T21:32:28.236Z,75.02
2023-05-21T21:34:08.581Z,74.87
2023-05-21T21:35:48.814Z,75.46
2023-05-21T21:37:29.118Z,73.91
2023-05-21T21:39:09.429Z,72.61